Time;durP1;ratioP1;P1;durP2;ratioP2;P2;SDS_P1;SDS_P2;PMS_P1;PMS_P2;Temp;Humidity;BMP_temperature;BMP_pressure;BME280_temperature;BME280_humidity;BME280_pressure;Samples;Min_cycle;Max_cycle;Signal;HPM_P1;HPM_P2
2024/01/14 00:01:25;;;;;;;45.95;20.90;;;;;;;;;;4784373;29;20137;-73
2024/01/14 00:03:52;;;;;;;45.50;20.40;;;;;;;;;;4792996;29;20104;-73
2024/01/14 00:06:18;;;;;;;47.63;20.92;;;;;;;;;;4801826;29;20074;-73
2024/01/14 00:08:45;;;;;;;40.47;19.52;;;;;;;;;;4808855;29;20062;-74
2024/01/14 00:11:11;;;;;;;37.53;18.58;;;;;;;;;;4793192;29;20050;-76
2024/01/14 00:13:38;;;;;;;44.33;19.77;;;;;;;;;;4795541;29;20058;-77
2024/01/14 00:16:04;;;;;;;41.60;20.20;;;;;;;;;;4814088;29;20607;-76
2024/01/14 00:18:31;;;;;;;41.00;20.50;;;;;;;;;;4789071;29;20594;-79
2024/01/14 00:20:58;;;;;;;41.65;19.17;;;;;;;;;;4798487;29;20412;-77
2024/01/14 00:23:25;;;;;;;41.38;18.90;;;;;;;;;;4792332;29;20087;-78
2024/01/14 00:25:51;;;;;;;39.88;19.73;;;;;;;;;;4793144;29;20552;-79
2024/01/14 00:28:17;;;;;;;41.75;19.10;;;;;;;;;;4807478;29;20505;-78
2024/01/14 00:30:44;;;;;;;41.70;21.30;;;;;;;;;;4806062;29;20051;-79
2024/01/14 00:33:10;;;;;;;38.67;18.75;;;;;;;;;;4793538;29;20059;-78
2024/01/14 00:35:37;;;;;;;40.78;19.85;;;;;;;;;;4793897;29;20149;-78
2024/01/14 00:38:08;;;;;;;43.28;20.25;;;;;;;;;;4797218;29;20697;-78
2024/01/14 00:40:34;;;;;;;46.15;19.80;;;;;;;;;;4790812;29;20078;-82
2024/01/14 00:43:02;;;;;;;41.13;19.85;;;;;;;;;;4809098;29;20055;-79
2024/01/14 00:45:29;;;;;;;45.70;21.23;;;;;;;;;;4796771;29;20057;-78
2024/01/14 00:47:55;;;;;;;41.13;19.92;;;;;;;;;;4792904;29;20139;-78
2024/01/14 00:50:22;;;;;;;48.22;21.25;;;;;;;;;;4810100;29;20063;-78
2024/01/14 00:52:49;;;;;;;47.17;20.42;;;;;;;;;;4787662;29;20755;-78
2024/01/14 00:55:15;;;;;;;43.85;21.15;;;;;;;;;;4789221;29;20128;-78
2024/01/14 00:57:42;;;;;;;45.72;20.95;;;;;;;;;;4802829;29;20062;-78
2024/01/14 01:00:09;;;;;;;40.10;19.00;;;;;;;;;;4804600;29;20070;-79
2024/01/14 01:02:36;;;;;;;43.33;19.67;;;;;;;;;;4799150;29;20069;-80
2024/01/14 01:05:03;;;;;;;47.05;19.80;;;;;;;;;;4789237;29;20071;-80
2024/01/14 01:07:30;;;;;;;46.13;19.92;;;;;;;;;;4792142;29;20119;-79
2024/01/14 01:09:57;;;;;;;54.28;21.65;;;;;;;;;;4806067;29;20055;-80
2024/01/14 01:12:23;;;;;;;47.03;21.63;;;;;;;;;;4796061;29;20738;-77
2024/01/14 01:14:50;;;;;;;49.80;21.73;;;;;;;;;;4800757;29;20104;-78
2024/01/14 01:17:17;;;;;;;53.75;22.13;;;;;;;;;;4803488;29;20610;-78
2024/01/14 01:19:43;;;;;;;60.92;26.17;;;;;;;;;;4810478;29;20055;-78
2024/01/14 01:22:11;;;;;;;57.35;23.25;;;;;;;;;;4805554;29;20154;-77
2024/01/14 01:24:38;;;;;;;60.20;25.17;;;;;;;;;;4801966;29;20071;-78
2024/01/14 01:27:05;;;;;;;54.70;23.42;;;;;;;;;;4811715;29;20453;-77
2024/01/14 01:29:32;;;;;;;60.38;25.92;;;;;;;;;;4793379;29;20085;-77
2024/01/14 01:31:58;;;;;;;55.13;24.15;;;;;;;;;;4798640;29;20053;-78
2024/01/14 01:34:33;;;;;;;62.15;24.48;;;;;;;;;;4791016;29;20054;-77
2024/01/14 01:37:00;;;;;;;55.38;23.98;;;;;;;;;;4791249;29;20097;-77
2024/01/14 01:39:27;;;;;;;62.10;25.55;;;;;;;;;;4811834;29;20055;-77
2024/01/14 01:41:53;;;;;;;53.15;22.67;;;;;;;;;;4793625;29;20342;-76
2024/01/14 01:44:21;;;;;;;53.45;25.02;;;;;;;;;;4799424;29;20062;-77
2024/01/14 01:46:49;;;;;;;61.10;26.58;;;;;;;;;;4794906;29;20054;-77
2024/01/14 01:49:15;;;;;;;60.03;25.15;;;;;;;;;;4808694;29;20055;-75
2024/01/14 01:51:44;;;;;;;64.10;26.35;;;;;;;;;;4793180;29;20051;-78
2024/01/14 01:54:11;;;;;;;67.90;29.17;;;;;;;;;;4798366;29;20729;-77
2024/01/14 01:56:38;;;;;;;57.95;25.75;;;;;;;;;;4806795;29;20074;-78
2024/01/14 01:59:05;;;;;;;65.35;26.48;;;;;;;;;;4792022;29;20108;-78
2024/01/14 02:01:32;;;;;;;57.65;26.77;;;;;;;;;;4810874;29;20050;-77
2024/01/14 02:04:00;;;;;;;64.38;24.90;;;;;;;;;;4789172;29;20062;-77
2024/01/14 02:06:27;;;;;;;55.78;24.42;;;;;;;;;;4792309;29;20050;-77
2024/01/14 02:08:54;;;;;;;59.88;26.90;;;;;;;;;;4797262;29;20547;-78
2024/01/14 02:11:20;;;;;;;53.05;25.40;;;;;;;;;;4802722;29;20055;-78
2024/01/14 02:13:47;;;;;;;55.25;25.95;;;;;;;;;;4791015;29;20115;-76
2024/01/14 02:16:15;;;;;;;57.67;25.90;;;;;;;;;;4789728;29;20481;-77
2024/01/14 02:18:44;;;;;;;58.08;26.77;;;;;;;;;;4788319;29;20070;-76
2024/01/14 02:21:13;;;;;;;61.03;26.38;;;;;;;;;;4788662;29;20054;-78
2024/01/14 02:23:41;;;;;;;68.85;30.35;;;;;;;;;;4798088;29;20058;-77
2024/01/14 02:26:08;;;;;;;66.18;28.35;;;;;;;;;;4795424;29;20141;-76
2024/01/14 02:28:34;;;;;;;73.93;28.45;;;;;;;;;;4785883;29;20071;-77
2024/01/14 02:31:01;;;;;;;64.13;27.98;;;;;;;;;;4794169;29;20053;-77
2024/01/14 02:33:27;;;;;;;62.67;28.38;;;;;;;;;;4788292;29;20582;-78
2024/01/14 02:35:54;;;;;;;58.65;26.88;;;;;;;;;;4796332;29;20544;-79
2024/01/14 02:38:20;;;;;;;66.18;28.10;;;;;;;;;;4810830;29;20059;-78
2024/01/14 02:40:47;;;;;;;64.35;26.70;;;;;;;;;;4785112;29;20055;-76
2024/01/14 02:43:13;;;;;;;59.30;27.58;;;;;;;;;;4788407;29;20063;-77
2024/01/14 02:45:40;;;;;;;61.17;26.73;;;;;;;;;;4787961;29;20115;-77
2024/01/14 02:48:06;;;;;;;67.18;28.88;;;;;;;;;;4797709;29;20128;-78
2024/01/14 02:50:33;;;;;;;60.97;27.88;;;;;;;;;;4805004;29;20055;-78
2024/01/14 02:53:00;;;;;;;60.80;26.52;;;;;;;;;;4794766;29;20055;-79
2024/01/14 02:55:26;;;;;;;65.65;31.25;;;;;;;;;;4798216;29;20054;-78
2024/01/14 02:57:54;;;;;;;61.40;28.00;;;;;;;;;;4792066;29;20057;-78
2024/01/14 03:00:20;;;;;;;58.93;26.70;;;;;;;;;;4795449;29;20063;-79
2024/01/14 03:02:47;;;;;;;60.97;28.30;;;;;;;;;;4793211;29;20054;-78
2024/01/14 03:05:13;;;;;;;58.17;25.00;;;;;;;;;;4801873;29;20137;-79
2024/01/14 03:07:40;;;;;;;58.05;26.67;;;;;;;;;;4800225;29;20082;-79
2024/01/14 03:10:06;;;;;;;58.22;28.10;;;;;;;;;;4800254;29;20355;-79
2024/01/14 03:12:33;;;;;;;58.00;27.02;;;;;;;;;;4783592;29;20058;-79
2024/01/14 03:14:59;;;;;;;50.88;24.75;;;;;;;;;;4788989;29;20137;-75
2024/01/14 03:17:26;;;;;;;50.53;25.42;;;;;;;;;;4797591;29;20704;-78
2024/01/14 03:19:52;;;;;;;60.03;26.98;;;;;;;;;;4786929;29;20493;-77
2024/01/14 03:22:19;;;;;;;58.05;27.30;;;;;;;;;;4812984;29;20057;-76
2024/01/14 03:24:45;;;;;;;61.25;26.23;;;;;;;;;;4798232;29;20074;-77
2024/01/14 03:27:12;;;;;;;60.17;27.80;;;;;;;;;;4783028;29;20079;-77
2024/01/14 03:29:38;;;;;;;56.80;26.95;;;;;;;;;;4799669;29;20054;-79
2024/01/14 03:32:05;;;;;;;66.40;29.25;;;;;;;;;;4808928;29;20065;-79
2024/01/14 03:34:31;;;;;;;63.70;29.00;;;;;;;;;;4800071;29;20155;-76
2024/01/14 03:36:58;;;;;;;68.78;28.70;;;;;;;;;;4804093;29;20456;-78
2024/01/14 03:39:24;;;;;;;70.47;30.92;;;;;;;;;;4795092;29;20393;-77
2024/01/14 03:41:50;;;;;;;67.43;28.98;;;;;;;;;;4784941;29;20126;-77
2024/01/14 03:44:18;;;;;;;68.30;27.90;;;;;;;;;;4794361;29;20127;-75
2024/01/14 03:46:44;;;;;;;67.50;28.83;;;;;;;;;;4798599;29;20051;-78
2024/01/14 03:49:11;;;;;;;65.30;30.98;;;;;;;;;;4798434;29;20536;-77
2024/01/14 03:51:37;;;;;;;67.68;30.50;;;;;;;;;;4794247;29;20065;-77
2024/01/14 03:54:04;;;;;;;66.32;29.52;;;;;;;;;;4798321;29;20062;-78
2024/01/14 03:56:30;;;;;;;65.55;29.15;;;;;;;;;;4794869;29;20069;-77
2024/01/14 03:58:57;;;;;;;65.45;30.20;;;;;;;;;;4809626;29;20105;-77
2024/01/14 04:01:23;;;;;;;64.70;29.58;;;;;;;;;;4794548;29;20124;-76
2024/01/14 04:03:50;;;;;;;62.28;28.38;;;;;;;;;;4798967;29;20134;-75
2024/01/14 04:06:20;;;;;;;62.05;28.55;;;;;;;;;;4795190;29;20066;-77
2024/01/14 04:08:47;;;;;;;60.88;27.20;;;;;;;;;;4789715;29;20702;-76
2024/01/14 04:11:14;;;;;;;60.45;26.70;;;;;;;;;;4798871;29;20537;-77
2024/01/14 04:13:40;;;;;;;55.60;26.90;;;;;;;;;;4791586;29;20071;-77
2024/01/14 04:16:07;;;;;;;58.58;26.73;;;;;;;;;;4797031;29;20052;-77
2024/01/14 04:18:37;;;;;;;55.42;24.98;;;;;;;;;;4782618;29;20055;-76
2024/01/14 04:21:03;;;;;;;66.68;26.48;;;;;;;;;;4775149;29;20059;-78
2024/01/14 04:23:30;;;;;;;58.80;26.35;;;;;;;;;;4787787;29;20149;-77
2024/01/14 04:25:56;;;;;;;61.08;27.45;;;;;;;;;;4778495;29;20090;-75
2024/01/14 04:28:22;;;;;;;64.88;28.45;;;;;;;;;;4800393;29;20086;-79
2024/01/14 04:30:52;;;;;;;65.25;28.23;;;;;;;;;;4807240;29;20551;-77
2024/01/14 04:33:18;;;;;;;67.00;28.27;;;;;;;;;;4795059;29;20074;-76
2024/01/14 04:35:45;;;;;;;71.35;29.63;;;;;;;;;;4795874;29;20400;-77
2024/01/14 04:38:12;;;;;;;67.15;28.88;;;;;;;;;;4816153;29;20066;-77
2024/01/14 04:40:38;;;;;;;61.58;28.50;;;;;;;;;;4789119;29;20134;-77
2024/01/14 04:43:06;;;;;;;68.22;29.45;;;;;;;;;;4791586;29;20083;-77
2024/01/14 04:45:34;;;;;;;69.60;28.27;;;;;;;;;;4813897;29;20066;-76
2024/01/14 04:48:01;;;;;;;65.28;29.80;;;;;;;;;;4793813;29;20066;-77
2024/01/14 04:50:28;;;;;;;62.55;27.80;;;;;;;;;;4804110;29;20054;-76
2024/01/14 04:52:55;;;;;;;78.25;31.83;;;;;;;;;;4798860;29;20050;-77
2024/01/14 04:55:21;;;;;;;69.93;30.33;;;;;;;;;;4786304;29;20063;-77
2024/01/14 04:57:48;;;;;;;66.00;28.92;;;;;;;;;;4792163;29;20055;-76
2024/01/14 05:00:14;;;;;;;63.72;27.77;;;;;;;;;;4796367;29;20450;-77
2024/01/14 05:02:41;;;;;;;64.57;30.05;;;;;;;;;;4793894;29;20146;-77
2024/01/14 05:05:08;;;;;;;69.55;29.25;;;;;;;;;;4810233;29;20059;-76
2024/01/14 05:07:34;;;;;;;64.93;28.92;;;;;;;;;;4785266;29;20058;-78
2024/01/14 05:10:01;;;;;;;69.55;29.27;;;;;;;;;;4793470;29;20055;-78
2024/01/14 05:12:27;;;;;;;78.88;29.90;;;;;;;;;;4787357;29;20138;-76
2024/01/14 05:14:54;;;;;;;69.97;29.02;;;;;;;;;;4792518;29;20054;-78
2024/01/14 05:17:20;;;;;;;71.70;29.55;;;;;;;;;;4802565;29;20059;-77
2024/01/14 05:19:47;;;;;;;69.28;29.65;;;;;;;;;;4792526;29;20067;-78
2024/01/14 05:22:14;;;;;;;56.95;25.42;;;;;;;;;;4793030;29;20058;-78
2024/01/14 05:24:44;;;;;;;63.47;26.98;;;;;;;;;;4806103;29;20124;-77
2024/01/14 05:27:11;;;;;;;60.38;28.52;;;;;;;;;;4792167;29;20066;-77
2024/01/14 05:29:41;;;;;;;60.28;27.67;;;;;;;;;;4786564;29;20114;-74
2024/01/14 05:32:08;;;;;;;61.88;26.35;;;;;;;;;;4794284;29;20825;-78
2024/01/14 05:34:34;;;;;;;60.67;26.90;;;;;;;;;;4789601;29;20065;-77
2024/01/14 05:37:01;;;;;;;70.50;28.73;;;;;;;;;;4782462;29;20116;-78
2024/01/14 05:39:27;;;;;;;58.83;26.30;;;;;;;;;;4783637;29;20063;-76
2024/01/14 05:41:54;;;;;;;64.00;26.90;;;;;;;;;;4792235;29;20063;-76
2024/01/14 05:44:20;;;;;;;62.28;27.85;;;;;;;;;;4801465;29;20112;-76
2024/01/14 05:46:46;;;;;;;63.50;27.20;;;;;;;;;;4797481;29;20060;-77
2024/01/14 05:49:13;;;;;;;61.85;26.27;;;;;;;;;;4782127;29;20129;-78
2024/01/14 05:51:39;;;;;;;56.03;26.55;;;;;;;;;;4798584;29;20038;-78
2024/01/14 05:54:06;;;;;;;65.10;28.10;;;;;;;;;;4792208;29;20078;-78
2024/01/14 05:56:33;;;;;;;54.50;26.05;;;;;;;;;;4802914;29;20046;-78
2024/01/14 05:59:00;;;;;;;55.10;25.63;;;;;;;;;;4795492;29;20547;-78
2024/01/14 06:01:27;;;;;;;52.72;24.63;;;;;;;;;;4798902;29;20047;-78
2024/01/14 06:03:53;;;;;;;54.15;24.48;;;;;;;;;;4799958;29;20055;-75
2024/01/14 06:06:20;;;;;;;54.13;23.08;;;;;;;;;;4793685;29;20529;-78
2024/01/14 06:08:46;;;;;;;49.13;23.85;;;;;;;;;;4797421;29;20371;-77
2024/01/14 06:11:13;;;;;;;44.83;22.35;;;;;;;;;;4795825;29;20054;-77
2024/01/14 06:13:41;;;;;;;54.35;24.83;;;;;;;;;;4813260;29;20042;-78
2024/01/14 06:16:08;;;;;;;46.70;23.65;;;;;;;;;;4802001;29;20063;-77
2024/01/14 06:18:35;;;;;;;50.83;23.58;;;;;;;;;;4801163;29;20055;-78
2024/01/14 06:21:01;;;;;;;48.42;22.60;;;;;;;;;;4791434;29;20059;-78
2024/01/14 06:23:28;;;;;;;43.42;21.08;;;;;;;;;;4789821;29;20142;-78
2024/01/14 06:25:55;;;;;;;53.05;24.23;;;;;;;;;;4797416;29;20054;-77
2024/01/14 06:28:22;;;;;;;54.55;22.80;;;;;;;;;;4793446;29;21236;-78
2024/01/14 06:30:48;;;;;;;53.15;23.83;;;;;;;;;;4797009;29;20051;-77
2024/01/14 06:33:15;;;;;;;49.78;24.80;;;;;;;;;;4796562;29;20055;-78
2024/01/14 06:35:43;;;;;;;52.45;24.33;;;;;;;;;;4806837;29;20135;-77
2024/01/14 06:38:10;;;;;;;52.70;23.30;;;;;;;;;;4797953;29;20047;-78
2024/01/14 06:40:36;;;;;;;58.35;24.83;;;;;;;;;;4793234;29;20606;-77
2024/01/14 06:43:08;;;;;;;56.33;25.65;;;;;;;;;;4802963;29;20616;-77
2024/01/14 06:45:34;;;;;;;55.95;26.27;;;;;;;;;;4797945;29;20054;-78
2024/01/14 06:48:01;;;;;;;62.55;28.55;;;;;;;;;;4793013;29;20420;-78
2024/01/14 06:50:27;;;;;;;56.15;26.25;;;;;;;;;;4793383;29;20670;-77
2024/01/14 06:52:54;;;;;;;61.58;28.58;;;;;;;;;;4783927;29;20055;-77
2024/01/14 06:55:21;;;;;;;62.70;29.42;;;;;;;;;;4813233;29;20051;-78
2024/01/14 06:57:47;;;;;;;68.13;29.20;;;;;;;;;;4808117;29;20483;-78
2024/01/14 07:00:14;;;;;;;62.40;30.27;;;;;;;;;;4811912;29;20121;-78
2024/01/14 07:02:40;;;;;;;67.38;29.83;;;;;;;;;;4797916;29;20062;-77
2024/01/14 07:05:09;;;;;;;62.40;28.60;;;;;;;;;;4794544;29;20130;-78
2024/01/14 07:07:36;;;;;;;62.63;28.10;;;;;;;;;;4808770;29;20630;-78
2024/01/14 07:10:03;;;;;;;62.75;27.55;;;;;;;;;;4797251;29;20174;-79
2024/01/14 07:12:29;;;;;;;64.88;30.08;;;;;;;;;;4799611;29;20082;-78
2024/01/14 07:14:56;;;;;;;65.78;31.38;;;;;;;;;;4801701;29;20078;-79
2024/01/14 07:17:22;;;;;;;70.50;29.48;;;;;;;;;;4794311;29;20416;-78
2024/01/14 07:19:49;;;;;;;65.20;29.33;;;;;;;;;;4796253;29;20590;-78
2024/01/14 07:22:16;;;;;;;69.57;28.75;;;;;;;;;;4785475;29;20695;-78
2024/01/14 07:24:42;;;;;;;65.50;26.63;;;;;;;;;;4802199;29;20221;-76
2024/01/14 07:27:09;;;;;;;71.82;30.58;;;;;;;;;;4802708;29;20061;-76
2024/01/14 07:29:35;;;;;;;66.75;30.88;;;;;;;;;;4790409;29;20051;-78
2024/01/14 07:32:02;;;;;;;73.78;33.65;;;;;;;;;;4803066;29;20053;-77
2024/01/14 07:34:31;;;;;;;69.32;29.90;;;;;;;;;;4783075;29;20059;-78
2024/01/14 07:36:58;;;;;;;65.97;30.70;;;;;;;;;;4807407;29;20082;-78
2024/01/14 07:39:25;;;;;;;75.68;33.72;;;;;;;;;;4787172;29;21405;-75
2024/01/14 07:41:51;;;;;;;69.85;30.80;;;;;;;;;;4798930;29;20054;-76
2024/01/14 07:44:18;;;;;;;68.55;30.90;;;;;;;;;;4796578;29;20054;-75
2024/01/14 07:46:45;;;;;;;84.25;33.38;;;;;;;;;;4790402;29;20065;-75
2024/01/14 07:49:11;;;;;;;67.82;32.38;;;;;;;;;;4793282;29;20054;-76
2024/01/14 07:51:38;;;;;;;74.85;33.00;;;;;;;;;;4797894;29;20079;-76
2024/01/14 07:54:04;;;;;;;72.05;31.48;;;;;;;;;;4798215;29;20063;-76
2024/01/14 07:56:31;;;;;;;75.60;32.80;;;;;;;;;;4788689;29;20117;-76
2024/01/14 07:58:57;;;;;;;86.05;37.65;;;;;;;;;;4791006;29;20104;-77
2024/01/14 08:01:24;;;;;;;76.60;34.33;;;;;;;;;;4801725;29;20119;-76
2024/01/14 08:03:50;;;;;;;75.38;33.28;;;;;;;;;;4784175;29;20497;-76
2024/01/14 08:06:22;;;;;;;76.22;34.38;;;;;;;;;;4789843;29;20059;-75
2024/01/14 08:08:48;;;;;;;73.43;32.67;;;;;;;;;;4798003;29;20071;-75
2024/01/14 08:11:16;;;;;;;81.40;32.83;;;;;;;;;;4809105;29;20051;-75
2024/01/14 08:13:43;;;;;;;67.70;32.83;;;;;;;;;;4800509;29;20107;-75
2024/01/14 08:16:09;;;;;;;76.05;29.70;;;;;;;;;;4785587;29;20644;-76
2024/01/14 08:18:36;;;;;;;68.07;30.52;;;;;;;;;;4796844;29;20507;-77
2024/01/14 08:21:07;;;;;;;73.13;32.63;;;;;;;;;;4788126;29;20059;-78
2024/01/14 08:23:37;;;;;;;70.55;33.03;;;;;;;;;;4800687;29;20073;-76
2024/01/14 08:26:05;;;;;;;65.85;30.08;;;;;;;;;;4795133;29;20136;-76
2024/01/14 08:28:32;;;;;;;69.40;31.88;;;;;;;;;;4787677;29;20055;-76
2024/01/14 08:30:59;;;;;;;69.70;31.02;;;;;;;;;;4797507;29;20063;-77
2024/01/14 08:33:26;;;;;;;73.95;32.83;;;;;;;;;;4794726;29;20047;-76
2024/01/14 08:35:53;;;;;;;68.38;30.85;;;;;;;;;;4800348;29;20107;-76
2024/01/14 08:38:20;;;;;;;73.55;30.50;;;;;;;;;;4799494;29;20047;-77
2024/01/14 08:40:47;;;;;;;67.88;32.08;;;;;;;;;;4802289;29;20051;-76
2024/01/14 08:43:13;;;;;;;71.53;32.85;;;;;;;;;;4779114;29;20105;-76
2024/01/14 08:45:39;;;;;;;69.00;30.02;;;;;;;;;;4796416;29;20068;-76
2024/01/14 08:48:06;;;;;;;71.63;29.27;;;;;;;;;;4799449;29;20512;-76
2024/01/14 08:50:33;;;;;;;75.60;30.17;;;;;;;;;;4794924;29;20046;-76
2024/01/14 08:52:59;;;;;;;65.78;29.48;;;;;;;;;;4799394;29;20050;-77
2024/01/14 08:55:26;;;;;;;65.35;28.58;;;;;;;;;;4804981;29;20504;-76
2024/01/14 08:57:52;;;;;;;71.22;31.55;;;;;;;;;;4806613;29;20107;-75
2024/01/14 09:00:19;;;;;;;73.35;33.35;;;;;;;;;;4799911;29;20481;-76
2024/01/14 09:02:46;;;;;;;81.53;30.10;;;;;;;;;;4794036;29;20046;-75
2024/01/14 09:05:12;;;;;;;74.45;31.75;;;;;;;;;;4813535;29;20055;-76
2024/01/14 09:07:38;;;;;;;67.80;28.52;;;;;;;;;;4801270;29;20054;-75
2024/01/14 09:10:05;;;;;;;76.55;31.85;;;;;;;;;;4792533;29;20526;-77
2024/01/14 09:12:32;;;;;;;69.55;31.35;;;;;;;;;;4796447;29;20134;-76
2024/01/14 09:14:58;;;;;;;71.13;30.20;;;;;;;;;;4797288;29;20054;-76
2024/01/14 09:17:24;;;;;;;67.05;28.88;;;;;;;;;;4800263;29;20061;-76
2024/01/14 09:19:51;;;;;;;74.60;31.90;;;;;;;;;;4797249;29;20050;-75
2024/01/14 09:22:18;;;;;;;67.55;28.15;;;;;;;;;;4779892;29;20086;-76
2024/01/14 09:24:45;;;;;;;69.80;29.63;;;;;;;;;;4793470;29;20108;-76
2024/01/14 09:27:15;;;;;;;74.90;31.55;;;;;;;;;;4799085;29;20054;-76
2024/01/14 09:29:42;;;;;;;63.25;28.20;;;;;;;;;;4809973;29;20055;-76
2024/01/14 09:32:08;;;;;;;66.18;29.00;;;;;;;;;;4804711;29;20059;-76
2024/01/14 09:34:35;;;;;;;68.30;27.95;;;;;;;;;;4783700;29;20055;-76
2024/01/14 09:37:01;;;;;;;55.70;26.85;;;;;;;;;;4786236;29;20058;-75
2024/01/14 09:39:28;;;;;;;56.47;27.42;;;;;;;;;;4803686;29;20507;-76
2024/01/14 09:42:04;;;;;;;56.95;25.15;;;;;;;;;;4782203;29;20061;-76
2024/01/14 09:44:30;;;;;;;54.65;25.92;;;;;;;;;;4789382;29;20065;-76
2024/01/14 09:46:58;;;;;;;59.42;25.90;;;;;;;;;;4782716;29;20108;-76
2024/01/14 09:49:24;;;;;;;62.05;27.92;;;;;;;;;;4802249;29;20051;-75
2024/01/14 09:51:51;;;;;;;43.92;22.35;;;;;;;;;;4790410;29;20656;-75
2024/01/14 09:54:18;;;;;;;60.97;27.48;;;;;;;;;;4794044;29;20055;-75
2024/01/14 09:56:46;;;;;;;59.60;27.02;;;;;;;;;;4782042;29;20055;-76
2024/01/14 09:59:15;;;;;;;64.65;28.77;;;;;;;;;;4790709;29;20467;-75
2024/01/14 10:01:42;;;;;;;64.25;28.77;;;;;;;;;;4787060;29;20055;-75
2024/01/14 10:04:08;;;;;;;59.22;28.17;;;;;;;;;;4792114;29;20157;-75
2024/01/14 10:06:35;;;;;;;67.28;29.80;;;;;;;;;;4794333;29;20485;-75
2024/01/14 10:09:02;;;;;;;61.17;27.92;;;;;;;;;;4807204;29;20252;-76
2024/01/14 10:11:28;;;;;;;61.25;28.23;;;;;;;;;;4794067;29;20061;-75
2024/01/14 10:13:55;;;;;;;59.17;27.95;;;;;;;;;;4788839;29;20054;-75
2024/01/14 10:16:22;;;;;;;65.63;30.38;;;;;;;;;;4790075;29;20999;-75
2024/01/14 10:19:09;;;;;;;62.92;27.65;;;;;;;;;;4775359;29;20561;-75
2024/01/14 10:21:35;;;;;;;59.38;27.33;;;;;;;;;;4806424;29;20066;-76
2024/01/14 10:24:04;;;;;;;56.63;26.65;;;;;;;;;;4780786;29;20094;-75
2024/01/14 10:26:30;;;;;;;58.88;28.70;;;;;;;;;;4786991;29;20531;-75
2024/01/14 10:29:00;;;;;;;60.92;27.60;;;;;;;;;;4800724;29;20063;-76
2024/01/14 10:31:26;;;;;;;57.72;27.08;;;;;;;;;;4789248;29;20062;-76
2024/01/14 10:33:53;;;;;;;61.22;27.33;;;;;;;;;;4786613;29;20054;-76
2024/01/14 10:36:19;;;;;;;73.13;33.40;;;;;;;;;;4793071;29;20690;-76
2024/01/14 10:38:46;;;;;;;64.35;29.48;;;;;;;;;;4802163;29;20063;-76
2024/01/14 10:41:12;;;;;;;67.50;30.40;;;;;;;;;;4804243;29;20062;-75
2024/01/14 10:43:40;;;;;;;68.18;29.55;;;;;;;;;;4789940;29;20577;-76
2024/01/14 10:46:07;;;;;;;63.33;30.73;;;;;;;;;;4789836;29;20560;-76
2024/01/14 10:48:36;;;;;;;66.43;29.40;;;;;;;;;;4793881;29;20052;-76
2024/01/14 10:51:04;;;;;;;67.35;30.23;;;;;;;;;;4794062;29;20505;-76
2024/01/14 10:53:35;;;;;;;71.95;29.35;;;;;;;;;;4806904;29;20062;-76
2024/01/14 10:56:03;;;;;;;72.85;31.70;;;;;;;;;;4797703;29;20884;-76
2024/01/14 10:58:30;;;;;;;69.35;33.97;;;;;;;;;;4795753;29;20055;-78
2024/01/14 11:01:01;;;;;;;66.95;30.30;;;;;;;;;;4786520;29;20069;-75
2024/01/14 11:03:28;;;;;;;75.57;31.10;;;;;;;;;;4801522;29;20047;-76
2024/01/14 11:05:55;;;;;;;72.88;31.67;;;;;;;;;;4788974;29;20065;-76
2024/01/14 11:08:21;;;;;;;70.10;29.80;;;;;;;;;;4796692;29;20133;-76
2024/01/14 11:10:52;;;;;;;74.90;32.10;;;;;;;;;;4803476;29;20154;-75
2024/01/14 11:13:28;;;;;;;68.47;30.05;;;;;;;;;;4792385;29;20403;-76
2024/01/14 11:15:59;;;;;;;65.28;28.35;;;;;;;;;;4787024;29;20161;-75
2024/01/14 11:18:29;;;;;;;69.20;29.45;;;;;;;;;;4795861;29;20055;-76
2024/01/14 11:21:05;;;;;;;68.50;28.73;;;;;;;;;;4795028;29;20078;-76
2024/01/14 11:23:52;;;;;;;61.75;27.98;;;;;;;;;;4781331;29;20401;-75
2024/01/14 11:26:18;;;;;;;64.93;30.25;;;;;;;;;;4794717;29;20058;-75
2024/01/14 11:28:45;;;;;;;69.72;29.55;;;;;;;;;;4802800;29;20059;-76
2024/01/14 11:31:11;;;;;;;64.53;28.65;;;;;;;;;;4808285;29;20612;-77
2024/01/14 11:33:40;;;;;;;64.20;27.65;;;;;;;;;;4814105;29;20882;-76
2024/01/14 11:36:08;;;;;;;62.42;29.02;;;;;;;;;;4791050;29;20143;-76
2024/01/14 11:38:37;;;;;;;63.95;26.67;;;;;;;;;;4802345;29;20641;-77
2024/01/14 11:41:24;;;;;;;62.30;28.17;;;;;;;;;;4797070;29;20050;-76
2024/01/14 11:43:55;;;;;;;58.97;27.08;;;;;;;;;;4799837;29;20085;-75
2024/01/14 11:46:51;;;;;;;60.78;25.90;;;;;;;;;;4813887;29;20097;-75
2024/01/14 11:49:23;;;;;;;65.28;28.67;;;;;;;;;;4789440;29;20063;-75
2024/01/14 11:51:54;;;;;;;60.08;27.75;;;;;;;;;;4799762;29;20055;-75
2024/01/14 11:54:22;;;;;;;55.85;25.92;;;;;;;;;;4802852;29;20057;-75
2024/01/14 11:56:48;;;;;;;54.78;23.05;;;;;;;;;;4802752;29;20085;-75
2024/01/14 11:59:16;;;;;;;47.90;22.67;;;;;;;;;;4800938;29;20120;-76
2024/01/14 12:02:06;;;;;;;54.00;24.20;;;;;;;;;;4801075;29;20054;-77
2024/01/14 12:04:32;;;;;;;52.22;25.15;;;;;;;;;;4811001;29;20119;-76
2024/01/14 12:06:59;;;;;;;43.70;20.00;;;;;;;;;;4796797;29;20473;-74
2024/01/14 12:09:25;;;;;;;45.58;20.98;;;;;;;;;;4787625;29;20408;-75
2024/01/14 12:11:52;;;;;;;44.72;20.45;;;;;;;;;;4800470;29;20508;-76
2024/01/14 12:14:18;;;;;;;50.70;23.05;;;;;;;;;;4800629;29;20054;-75
2024/01/14 12:16:45;;;;;;;50.58;23.20;;;;;;;;;;4803735;29;20051;-75
2024/01/14 12:19:15;;;;;;;45.95;22.67;;;;;;;;;;4800853;29;20094;-74
2024/01/14 12:21:42;;;;;;;54.90;23.75;;;;;;;;;;4798150;29;21455;-75
2024/01/14 12:24:13;;;;;;;48.28;22.42;;;;;;;;;;4808853;29;20061;-76
2024/01/14 12:26:44;;;;;;;46.08;22.98;;;;;;;;;;4807945;29;20074;-75
2024/01/14 12:29:11;;;;;;;42.85;22.42;;;;;;;;;;4793618;29;20055;-74
2024/01/14 12:31:37;;;;;;;44.58;22.45;;;;;;;;;;4793635;29;20158;-76
2024/01/14 12:34:22;;;;;;;48.00;23.58;;;;;;;;;;4800075;29;20046;-74
2024/01/14 12:36:49;;;;;;;45.05;22.15;;;;;;;;;;4801030;29;20051;-75
2024/01/14 12:39:20;;;;;;;43.97;20.25;;;;;;;;;;4813351;29;20055;-78
2024/01/14 12:41:52;;;;;;;51.85;24.98;;;;;;;;;;4801094;29;20482;-77
2024/01/14 12:44:21;;;;;;;47.50;23.13;;;;;;;;;;4809286;29;20082;-78
2024/01/14 12:46:51;;;;;;;50.17;24.63;;;;;;;;;;4800435;29;20050;-76
2024/01/14 12:49:22;;;;;;;48.05;23.10;;;;;;;;;;4815010;29;20569;-77
2024/01/14 12:51:57;;;;;;;51.30;23.00;;;;;;;;;;4803085;29;20087;-77
2024/01/14 12:54:24;;;;;;;53.75;25.45;;;;;;;;;;4801535;29;20050;-78
2024/01/14 12:57:00;;;;;;;50.83;24.58;;;;;;;;;;4812711;29;20366;-77
2024/01/14 12:59:29;;;;;;;48.38;22.90;;;;;;;;;;4803769;29;20058;-79
2024/01/14 13:01:55;;;;;;;43.05;21.33;;;;;;;;;;4816178;29;20077;-78
2024/01/14 13:04:23;;;;;;;47.55;22.17;;;;;;;;;;4794189;29;20054;-77
2024/01/14 13:06:50;;;;;;;47.30;23.07;;;;;;;;;;4801230;29;20080;-78
2024/01/14 13:09:18;;;;;;;49.03;23.90;;;;;;;;;;4814641;29;20051;-79
2024/01/14 13:11:44;;;;;;;47.55;21.95;;;;;;;;;;4805118;29;20169;-78
2024/01/14 13:14:10;;;;;;;45.60;21.73;;;;;;;;;;4805789;29;20427;-78
2024/01/14 13:16:37;;;;;;;48.22;22.95;;;;;;;;;;4803804;29;20059;-79
2024/01/14 13:19:15;;;;;;;44.67;22.67;;;;;;;;;;4796199;29;20054;-78
2024/01/14 13:21:42;;;;;;;50.47;24.05;;;;;;;;;;4793087;29;20111;-77
2024/01/14 13:24:09;;;;;;;45.40;22.20;;;;;;;;;;4791315;29;20081;-79
2024/01/14 13:26:41;;;;;;;45.97;22.88;;;;;;;;;;4786901;29;20118;-78
2024/01/14 13:29:10;;;;;;;44.60;22.42;;;;;;;;;;4794834;29;20063;-78
2024/01/14 13:31:38;;;;;;;42.20;20.95;;;;;;;;;;4817154;29;20078;-76
2024/01/14 13:34:08;;;;;;;40.88;20.02;;;;;;;;;;4783913;29;20058;-79
2024/01/14 13:36:35;;;;;;;40.92;21.42;;;;;;;;;;4818584;29;20065;-79
2024/01/14 13:39:03;;;;;;;43.45;21.55;;;;;;;;;;4808041;29;20600;-77
2024/01/14 13:41:31;;;;;;;;;;;;;;;;;;4805253;29;20051;-79
2024/01/14 13:43:57;;;;;;;40.42;18.75;;;;;;;;;;4800628;29;19959;-78
2024/01/14 13:46:42;;;;;;;44.13;20.38;;;;;;;;;;4799983;29;20055;-77
2024/01/14 13:49:09;;;;;;;43.08;20.10;;;;;;;;;;4801412;29;20090;-80
2024/01/14 13:51:38;;;;;;;42.38;20.63;;;;;;;;;;4797957;29;20051;-76
2024/01/14 13:54:05;;;;;;;45.97;22.70;;;;;;;;;;4802883;29;20527;-80
2024/01/14 13:56:39;;;;;;;45.20;22.40;;;;;;;;;;4798655;29;20051;-77
2024/01/14 13:59:08;;;;;;;43.83;20.20;;;;;;;;;;4806364;29;20147;-80
2024/01/14 14:01:36;;;;;;;38.35;20.77;;;;;;;;;;4796210;29;20054;-80
2024/01/14 14:04:03;;;;;;;42.90;22.43;;;;;;;;;;4788363;29;20119;-80
2024/01/14 14:06:35;;;;;;;43.25;23.80;;;;;;;;;;4798025;29;20428;-80
2024/01/14 14:09:06;;;;;;;40.95;19.45;;;;;;;;;;4793142;29;20166;-80
2024/01/14 14:11:34;;;;;;;42.35;20.00;;;;;;;;;;4800155;29;20074;-79
2024/01/14 14:14:01;;;;;;;37.17;19.25;;;;;;;;;;4790298;29;20058;-79
2024/01/14 14:16:28;;;;;;;38.15;18.35;;;;;;;;;;4787356;29;20516;-78
2024/01/14 14:19:07;;;;;;;34.47;17.13;;;;;;;;;;4800669;29;20055;-79
2024/01/14 14:21:35;;;;;;;43.65;19.65;;;;;;;;;;4783660;29;20140;-79